Gassaway, WV

2:31 AM EDT on July 14, 2014 (GMT -0400)
Benedum (KCKB) Elev 1204 ft | 39.30 °N, 80.23 °W | Change Station

Current weather conditions updated 38 minutes ago

Partly Cloudy
Partly Cloudy
69 °F
Feels Like 69 °F
N
6
Wind Variable Wind from SSE

Today is forecast to be Much Cooler than yesterday. Showers and thunderstorms.

Today
High -- | Low -- °F
--% Chance of Precip.
Yesterday
High -- | Low -- °F
Precip. -- in
6:09 AM 8:47 PM
Waning Gibbous, 95% visible
Pressure 29.92 in
Visibility 10.0 miles
Clouds Few 7000 ft
Few 12000 ft
Dew Point 67 °F
Humidity 93%
Rainfall 0.16 in
Snow Depth Not available.
UV 0 out of 12
Pollen 3.10 out of 12
Air Quality Not available.
Flu Activity Sporadic
METAR KCKB 140553Z AUTO 16005KT 10SM FEW070 FEW120 21/19 A2996 RMK AO2 LTG DSNT SW RAE42 SLP130 P0004 60024 T02060194 10217 20206 58013

More Conditions Fewer Conditions

Pressure 29.92 in
Visibility 10.0 miles
Clouds Few 7000 ft
Few 12000 ft
Dew Point 67 °F
Humidity 93%
Rainfall 0.16 in
Snow Depth Not available.
UV 0 out of 12
Pollen 3.10 out of 12
Air Quality Not available.
Flu Activity Sporadic
METAR KCKB 140553Z AUTO 16005KT 10SM FEW070 FEW120 21/19 A2996 RMK AO2 LTG DSNT SW RAE42 SLP130 P0004 60024 T02060194 10217 20206 58013

More Conditions Fewer Conditions

10-Day Weather Forecast

Almanac

Astronomy

Jul. 14, 2014 Rise Set
Actual Time 6:09 AM EDT 8:47 PM EDT
Civil Twilight 5:38 AM EDT 9:18 PM EDT
Nautical Twilight 5:00 AM EDT 9:57 PM EDT
Astronomical Twilight 4:16 AM EDT 10:40 PM EDT
Moon 10:19 PM EDT 8:48 AM EDT
Length of Visible Light 15h 39m
Length of Day
14h 37m
Tomorrow will be 1m 15s shorter.
Waning Gibbous, 95% of the Moon is Illuminated
Today
Waning Gibbous
Jul 18
Last Quarter
Jul 26
New
Aug 3
First Quarter
Aug 10
Full

Today's Extremes

State Highs State Lows

Community

WunderPhotos

Upload Photos

1,733,565 photos uploaded!

Nearby

Snow Depth

Station Depth Elevation
No new snow has been reported.

Earthquake Activity

City Distance Mag. Time & Date
No recent earthquake activity has been reported nearby.
Minimum magnitude displayed is 2.5.

Coastal Water Temperatures

Place Temperature
No Stations Reporting

Nearby Weather Stations

Station Location Temp. Dew Point Humidity Wind Precip. Elev Updated Type
Frame Circle, Gassaway, WV 69.9 °F 68 °F 95% East  at  1.0 mph 0.02 in / hr 890 ft 2:31 AM EDT Rapid Fire
Grapevine Circle, Gassaway, WV 68.7 °F 68 °F 99% East  at  0.0 mph 0.00 in / hr 1270 ft 2:30 AM EDT Normal
RAWS FLATWOODS WV, Sutton, WV 69 °F 67 °F 94% East  at  5 mph 0.00 in / hr 1267 ft 1:17 AM EDT MADIS
Brooklyn Point, Glenville, WV 72.1 °F 72 °F 98% NW  at  0.0 mph - / hr 732 ft 1:21 AM CDT Normal
Quirky Towers, Vadis, Alum Bridge, WV 70.7 °F 70 °F 99% East  at  0.7 mph 0.27 in / hr 837 ft 12:18 AM EDT Normal

Show More Stations Show Fewer Stations